sensor_id;sensor_type;location;lat;lon;timestamp;temperature;humidity
68701;DHT22;55682;51.114;5.882;2023-12-14T00:00:27;11.02;83.56
68701;DHT22;55682;51.114;5.882;2023-12-14T00:02:53;11.02;83.50
68701;DHT22;55682;51.114;5.882;2023-12-14T00:05:18;11.00;83.52
68701;DHT22;55682;51.114;5.882;2023-12-14T00:07:44;10.99;83.59
68701;DHT22;55682;51.114;5.882;2023-12-14T00:10:10;11.00;83.65
68701;DHT22;55682;51.114;5.882;2023-12-14T00:12:36;11.02;83.73
68701;DHT22;55682;51.114;5.882;2023-12-14T00:15:02;11.04;83.61
68701;DHT22;55682;51.114;5.882;2023-12-14T00:17:28;11.07;83.58
68701;DHT22;55682;51.114;5.882;2023-12-14T00:19:54;11.08;83.61
68701;DHT22;55682;51.114;5.882;2023-12-14T00:22:19;11.09;83.68
68701;DHT22;55682;51.114;5.882;2023-12-14T00:24:45;11.11;83.61
68701;DHT22;55682;51.114;5.882;2023-12-14T00:27:11;11.10;83.60
68701;DHT22;55682;51.114;5.882;2023-12-14T00:29:36;11.12;83.56
68701;DHT22;55682;51.114;5.882;2023-12-14T00:32:02;11.13;83.44
68701;DHT22;55682;51.114;5.882;2023-12-14T00:34:28;11.13;83.36
68701;DHT22;55682;51.114;5.882;2023-12-14T00:36:53;11.15;83.31
68701;DHT22;55682;51.114;5.882;2023-12-14T00:39:19;11.11;83.25
68701;DHT22;55682;51.114;5.882;2023-12-14T00:41:44;11.01;83.53
68701;DHT22;55682;51.114;5.882;2023-12-14T00:44:10;10.94;83.82
68701;DHT22;55682;51.114;5.882;2023-12-14T00:46:36;10.90;84.10
68701;DHT22;55682;51.114;5.882;2023-12-14T00:49:01;10.85;84.08
68701;DHT22;55682;51.114;5.882;2023-12-14T00:51:27;10.78;84.19
68701;DHT22;55682;51.114;5.882;2023-12-14T00:53:53;10.70;84.09
68701;DHT22;55682;51.114;5.882;2023-12-14T00:56:18;10.63;84.17
68701;DHT22;55682;51.114;5.882;2023-12-14T00:58:44;10.53;84.06
68701;DHT22;55682;51.114;5.882;2023-12-14T01:01:10;10.45;84.24
68701;DHT22;55682;51.114;5.882;2023-12-14T01:03:35;10.43;84.06
68701;DHT22;55682;51.114;5.882;2023-12-14T01:06:01;10.33;84.18
68701;DHT22;55682;51.114;5.882;2023-12-14T01:08:27;10.27;84.32
68701;DHT22;55682;51.114;5.882;2023-12-14T01:10:52;10.23;84.36
68701;DHT22;55682;51.114;5.882;2023-12-14T01:13:18;10.23;84.42
68701;DHT22;55682;51.114;5.882;2023-12-14T01:15:43;10.21;84.56
68701;DHT22;55682;51.114;5.882;2023-12-14T01:18:09;10.25;84.57
68701;DHT22;55682;51.114;5.882;2023-12-14T01:20:35;10.28;84.33
68701;DHT22;55682;51.114;5.882;2023-12-14T01:23:00;10.28;84.27
68701;DHT22;55682;51.114;5.882;2023-12-14T01:25:26;10.30;84.08
68701;DHT22;55682;51.114;5.882;2023-12-14T01:27:51;10.26;84.12
68701;DHT22;55682;51.114;5.882;2023-12-14T01:30:17;10.21;84.25
68701;DHT22;55682;51.114;5.882;2023-12-14T01:32:42;10.19;84.62
68701;DHT22;55682;51.114;5.882;2023-12-14T01:35:08;10.20;84.64
68701;DHT22;55682;51.114;5.882;2023-12-14T01:37:34;10.20;84.76
68701;DHT22;55682;51.114;5.882;2023-12-14T01:39:59;10.23;84.70
68701;DHT22;55682;51.114;5.882;2023-12-14T01:42:25;10.25;84.55
68701;DHT22;55682;51.114;5.882;2023-12-14T01:44:51;10.25;84.49
68701;DHT22;55682;51.114;5.882;2023-12-14T01:47:17;10.22;84.31
68701;DHT22;55682;51.114;5.882;2023-12-14T01:49:43;10.15;84.34
68701;DHT22;55682;51.114;5.882;2023-12-14T01:52:08;10.14;84.52
68701;DHT22;55682;51.114;5.882;2023-12-14T01:54:34;10.12;84.23
68701;DHT22;55682;51.114;5.882;2023-12-14T01:56:59;10.07;84.26
68701;DHT22;55682;51.114;5.882;2023-12-14T01:59:25;10.05;84.26
68701;DHT22;55682;51.114;5.882;2023-12-14T02:01:55;9.99;83.90
68701;DHT22;55682;51.114;5.882;2023-12-14T02:04:24;9.92;84.00
68701;DHT22;55682;51.114;5.882;2023-12-14T02:06:50;9.84;83.99
68701;DHT22;55682;51.114;5.882;2023-12-14T02:09:16;9.80;84.14
68701;DHT22;55682;51.114;5.882;2023-12-14T02:11:42;9.78;84.12
68701;DHT22;55682;51.114;5.882;2023-12-14T02:14:11;9.74;84.07
68701;DHT22;55682;51.114;5.882;2023-12-14T02:16:37;9.72;84.11
68701;DHT22;55682;51.114;5.882;2023-12-14T02:19:06;9.69;84.34
68701;DHT22;55682;51.114;5.882;2023-12-14T02:21:32;9.66;84.22
68701;DHT22;55682;51.114;5.882;2023-12-14T02:23:58;9.59;84.36
68701;DHT22;55682;51.114;5.882;2023-12-14T02:26:23;9.61;84.40
68701;DHT22;55682;51.114;5.882;2023-12-14T02:28:49;9.54;84.33
68701;DHT22;55682;51.114;5.882;2023-12-14T02:31:15;9.49;84.35
68701;DHT22;55682;51.114;5.882;2023-12-14T02:33:40;9.45;84.48
68701;DHT22;55682;51.114;5.882;2023-12-14T02:36:07;9.44;84.52
68701;DHT22;55682;51.114;5.882;2023-12-14T02:38:32;9.45;84.52
68701;DHT22;55682;51.114;5.882;2023-12-14T02:40:58;9.45;84.31
68701;DHT22;55682;51.114;5.882;2023-12-14T02:43:24;9.45;84.26
68701;DHT22;55682;51.114;5.882;2023-12-14T02:45:50;9.49;84.27
68701;DHT22;55682;51.114;5.882;2023-12-14T02:48:15;9.48;83.91
68701;DHT22;55682;51.114;5.882;2023-12-14T02:50:41;9.49;83.83
68701;DHT22;55682;51.114;5.882;2023-12-14T02:53:07;9.51;83.59
68701;DHT22;55682;51.114;5.882;2023-12-14T02:55:32;9.49;83.71
68701;DHT22;55682;51.114;5.882;2023-12-14T02:57:58;9.52;83.74
68701;DHT22;55682;51.114;5.882;2023-12-14T03:00:23;9.50;83.68
68701;DHT22;55682;51.114;5.882;2023-12-14T03:02:49;9.53;83.57
68701;DHT22;55682;51.114;5.882;2023-12-14T03:05:15;9.52;83.65
68701;DHT22;55682;51.114;5.882;2023-12-14T03:07:41;9.54;83.71
68701;DHT22;55682;51.114;5.882;2023-12-14T03:10:07;9.50;83.65
68701;DHT22;55682;51.114;5.882;2023-12-14T03:12:33;9.51;83.43
68701;DHT22;55682;51.114;5.882;2023-12-14T03:14:58;9.47;83.67
68701;DHT22;55682;51.114;5.882;2023-12-14T03:17:24;9.44;83.67
68701;DHT22;55682;51.114;5.882;2023-12-14T03:19:50;9.45;83.67
68701;DHT22;55682;51.114;5.882;2023-12-14T03:22:15;9.42;83.72
68701;DHT22;55682;51.114;5.882;2023-12-14T03:24:42;9.40;83.68
68701;DHT22;55682;51.114;5.882;2023-12-14T03:27:07;9.39;83.27
68701;DHT22;55682;51.114;5.882;2023-12-14T03:29:33;9.30;83.49
68701;DHT22;55682;51.114;5.882;2023-12-14T03:31:59;9.27;83.69
68701;DHT22;55682;51.114;5.882;2023-12-14T03:34:24;9.26;83.87
68701;DHT22;55682;51.114;5.882;2023-12-14T03:36:50;9.31;83.78
68701;DHT22;55682;51.114;5.882;2023-12-14T03:39:16;9.31;83.61
68701;DHT22;55682;51.114;5.882;2023-12-14T03:41:43;9.32;83.49
68701;DHT22;55682;51.114;5.882;2023-12-14T03:44:08;9.35;83.27
68701;DHT22;55682;51.114;5.882;2023-12-14T03:46:34;9.39;83.23
68701;DHT22;55682;51.114;5.882;2023-12-14T03:49:00;9.44;83.04
68701;DHT22;55682;51.114;5.882;2023-12-14T03:51:26;9.48;82.85
68701;DHT22;55682;51.114;5.882;2023-12-14T03:53:52;9.48;82.69
68701;DHT22;55682;51.114;5.882;2023-12-14T03:56:17;9.44;82.67
68701;DHT22;55682;51.114;5.882;2023-12-14T03:58:43;9.44;82.79
68701;DHT22;55682;51.114;5.882;2023-12-14T04:01:16;9.40;82.81
68701;DHT22;55682;51.114;5.882;2023-12-14T04:03:41;9.40;82.84
68701;DHT22;55682;51.114;5.882;2023-12-14T04:06:07;9.40;82.78
68701;DHT22;55682;51.114;5.882;2023-12-14T04:08:33;9.40;82.78
68701;DHT22;55682;51.114;5.882;2023-12-14T04:10:58;9.41;82.58
68701;DHT22;55682;51.114;5.882;2023-12-14T04:13:24;9.35;82.48
68701;DHT22;55682;51.114;5.882;2023-12-14T04:15:50;9.31;82.49
68701;DHT22;55682;51.114;5.882;2023-12-14T04:18:15;9.27;82.58
68701;DHT22;55682;51.114;5.882;2023-12-14T04:20:41;9.27;82.52
68701;DHT22;55682;51.114;5.882;2023-12-14T04:23:06;9.25;82.42
68701;DHT22;55682;51.114;5.882;2023-12-14T04:25:32;9.23;82.45
68701;DHT22;55682;51.114;5.882;2023-12-14T04:27:58;9.24;82.36
68701;DHT22;55682;51.114;5.882;2023-12-14T04:30:23;9.22;82.33
68701;DHT22;55682;51.114;5.882;2023-12-14T04:32:49;9.22;82.31
68701;DHT22;55682;51.114;5.882;2023-12-14T04:35:15;9.20;82.13
68701;DHT22;55682;51.114;5.882;2023-12-14T04:37:40;9.20;82.19
68701;DHT22;55682;51.114;5.882;2023-12-14T04:40:06;9.21;82.25
68701;DHT22;55682;51.114;5.882;2023-12-14T04:42:32;9.21;82.32
68701;DHT22;55682;51.114;5.882;2023-12-14T04:44:58;9.21;82.26
68701;DHT22;55682;51.114;5.882;2023-12-14T04:47:24;9.24;82.07
68701;DHT22;55682;51.114;5.882;2023-12-14T04:49:50;9.23;81.82
68701;DHT22;55682;51.114;5.882;2023-12-14T04:52:15;9.15;81.93
68701;DHT22;55682;51.114;5.882;2023-12-14T04:54:41;9.11;82.13
68701;DHT22;55682;51.114;5.882;2023-12-14T04:57:07;9.09;82.20
68701;DHT22;55682;51.114;5.882;2023-12-14T04:59:33;9.07;82.26
68701;DHT22;55682;51.114;5.882;2023-12-14T05:05:11;9.08;82.21
68701;DHT22;55682;51.114;5.882;2023-12-14T05:07:37;9.09;82.11
68701;DHT22;55682;51.114;5.882;2023-12-14T05:10:03;9.07;82.04
68701;DHT22;55682;51.114;5.882;2023-12-14T05:12:29;9.05;81.83
68701;DHT22;55682;51.114;5.882;2023-12-14T05:14:57;8.93;82.13
68701;DHT22;55682;51.114;5.882;2023-12-14T05:17:22;8.88;82.42
68701;DHT22;55682;51.114;5.882;2023-12-14T05:19:48;8.88;82.71
68701;DHT22;55682;51.114;5.882;2023-12-14T05:22:14;8.88;82.74
68701;DHT22;55682;51.114;5.882;2023-12-14T05:24:39;8.89;82.68
68701;DHT22;55682;51.114;5.882;2023-12-14T05:27:05;8.90;82.49
68701;DHT22;55682;51.114;5.882;2023-12-14T05:29:30;8.91;82.52
68701;DHT22;55682;51.114;5.882;2023-12-14T05:31:58;8.91;82.29
68701;DHT22;55682;51.114;5.882;2023-12-14T05:34:24;8.90;82.42
68701;DHT22;55682;51.114;5.882;2023-12-14T05:36:49;8.92;82.35
68701;DHT22;55682;51.114;5.882;2023-12-14T05:39:15;8.95;82.30
68701;DHT22;55682;51.114;5.882;2023-12-14T05:41:41;8.94;82.20
68701;DHT22;55682;51.114;5.882;2023-12-14T05:44:07;8.89;82.33
68701;DHT22;55682;51.114;5.882;2023-12-14T05:46:33;8.82;82.65
68701;DHT22;55682;51.114;5.882;2023-12-14T05:48:58;8.82;82.85
68701;DHT22;55682;51.114;5.882;2023-12-14T05:51:32;8.78;82.87
68701;DHT22;55682;51.114;5.882;2023-12-14T05:53:58;8.76;83.04
68701;DHT22;55682;51.114;5.882;2023-12-14T05:56:25;8.75;83.06
68701;DHT22;55682;51.114;5.882;2023-12-14T05:58:50;8.77;83.01
68701;DHT22;55682;51.114;5.882;2023-12-14T06:01:17;8.82;82.87
68701;DHT22;55682;51.114;5.882;2023-12-14T06:03:44;8.86;82.72
68701;DHT22;55682;51.114;5.882;2023-12-14T06:06:10;8.87;82.51
68701;DHT22;55682;51.114;5.882;2023-12-14T06:08:37;8.88;82.38
68701;DHT22;55682;51.114;5.882;2023-12-14T06:11:03;8.88;82.26
68701;DHT22;55682;51.114;5.882;2023-12-14T06:13:31;8.86;82.04
68701;DHT22;55682;51.114;5.882;2023-12-14T06:15:57;8.81;82.03
68701;DHT22;55682;51.114;5.882;2023-12-14T06:18:23;8.79;82.04
68701;DHT22;55682;51.114;5.882;2023-12-14T06:20:48;8.78;82.09
68701;DHT22;55682;51.114;5.882;2023-12-14T06:23:14;8.76;82.16
68701;DHT22;55682;51.114;5.882;2023-12-14T06:25:40;8.76;82.13
68701;DHT22;55682;51.114;5.882;2023-12-14T06:28:05;8.80;82.08
68701;DHT22;55682;51.114;5.882;2023-12-14T06:30:31;8.83;81.88
68701;DHT22;55682;51.114;5.882;2023-12-14T06:32:56;8.83;81.74
68701;DHT22;55682;51.114;5.882;2023-12-14T06:35:22;8.86;81.81
68701;DHT22;55682;51.114;5.882;2023-12-14T06:37:48;8.88;81.72
68701;DHT22;55682;51.114;5.882;2023-12-14T06:40:13;8.89;81.54
68701;DHT22;55682;51.114;5.882;2023-12-14T06:42:39;8.87;81.39
68701;DHT22;55682;51.114;5.882;2023-12-14T06:45:05;8.83;81.40
68701;DHT22;55682;51.114;5.882;2023-12-14T06:47:31;8.80;81.52
68701;DHT22;55682;51.114;5.882;2023-12-14T06:49:57;8.77;81.68
68701;DHT22;55682;51.114;5.882;2023-12-14T06:52:23;8.74;81.80
68701;DHT22;55682;51.114;5.882;2023-12-14T06:54:48;8.72;81.94
68701;DHT22;55682;51.114;5.882;2023-12-14T06:57:14;8.67;82.14
68701;DHT22;55682;51.114;5.882;2023-12-14T06:59:40;8.68;81.96
68701;DHT22;55682;51.114;5.882;2023-12-14T07:02:06;8.65;81.94
68701;DHT22;55682;51.114;5.882;2023-12-14T07:04:32;8.66;82.01
68701;DHT22;55682;51.114;5.882;2023-12-14T07:06:58;8.68;81.91
68701;DHT22;55682;51.114;5.882;2023-12-14T07:09:24;8.66;81.82
68701;DHT22;55682;51.114;5.882;2023-12-14T07:11:50;8.71;81.71
68701;DHT22;55682;51.114;5.882;2023-12-14T07:14:15;8.71;81.49
68701;DHT22;55682;51.114;5.882;2023-12-14T07:16:41;8.68;81.53
68701;DHT22;55682;51.114;5.882;2023-12-14T07:19:07;8.68;81.42
68701;DHT22;55682;51.114;5.882;2023-12-14T07:21:33;8.65;81.34
68701;DHT22;55682;51.114;5.882;2023-12-14T07:23:58;8.61;81.45
68701;DHT22;55682;51.114;5.882;2023-12-14T07:26:24;8.61;81.52
68701;DHT22;55682;51.114;5.882;2023-12-14T07:28:53;8.62;81.43
68701;DHT22;55682;51.114;5.882;2023-12-14T07:31:19;8.64;81.31
68701;DHT22;55682;51.114;5.882;2023-12-14T07:33:45;8.67;81.18
68701;DHT22;55682;51.114;5.882;2023-12-14T07:36:11;8.68;81.11
68701;DHT22;55682;51.114;5.882;2023-12-14T07:38:36;8.72;81.15
68701;DHT22;55682;51.114;5.882;2023-12-14T07:41:02;8.74;81.01
68701;DHT22;55682;51.114;5.882;2023-12-14T07:43:28;8.77;80.91
68701;DHT22;55682;51.114;5.882;2023-12-14T07:45:54;8.76;80.57
68701;DHT22;55682;51.114;5.882;2023-12-14T07:48:20;8.78;80.35
68701;DHT22;55682;51.114;5.882;2023-12-14T07:50:45;8.77;80.17
68701;DHT22;55682;51.114;5.882;2023-12-14T07:53:13;8.76;79.90
68701;DHT22;55682;51.114;5.882;2023-12-14T07:55:39;8.75;79.73
68701;DHT22;55682;51.114;5.882;2023-12-14T07:58:05;8.74;79.53
68701;DHT22;55682;51.114;5.882;2023-12-14T08:00:30;8.72;79.58
68701;DHT22;55682;51.114;5.882;2023-12-14T08:02:56;8.75;79.59
68701;DHT22;55682;51.114;5.882;2023-12-14T08:05:22;8.75;79.52
68701;DHT22;55682;51.114;5.882;2023-12-14T08:07:47;8.75;79.39
68701;DHT22;55682;51.114;5.882;2023-12-14T08:10:13;8.73;79.19
68701;DHT22;55682;51.114;5.882;2023-12-14T08:12:39;8.74;79.20
68701;DHT22;55682;51.114;5.882;2023-12-14T08:15:04;8.75;79.18
68701;DHT22;55682;51.114;5.882;2023-12-14T08:17:30;8.77;79.16
68701;DHT22;55682;51.114;5.882;2023-12-14T08:19:56;8.76;79.10
68701;DHT22;55682;51.114;5.882;2023-12-14T08:22:22;8.72;79.10
68701;DHT22;55682;51.114;5.882;2023-12-14T08:24:48;8.73;79.14
68701;DHT22;55682;51.114;5.882;2023-12-14T08:27:14;8.74;79.21
68701;DHT22;55682;51.114;5.882;2023-12-14T08:29:39;8.75;79.09
68701;DHT22;55682;51.114;5.882;2023-12-14T08:32:05;8.68;79.15
68701;DHT22;55682;51.114;5.882;2023-12-14T08:34:31;8.66;79.20
68701;DHT22;55682;51.114;5.882;2023-12-14T08:36:56;8.66;79.22
68701;DHT22;55682;51.114;5.882;2023-12-14T08:39:22;8.64;79.17
68701;DHT22;55682;51.114;5.882;2023-12-14T08:41:47;8.64;79.30
68701;DHT22;55682;51.114;5.882;2023-12-14T08:44:15;8.67;79.30
68701;DHT22;55682;51.114;5.882;2023-12-14T08:46:43;8.70;79.18
68701;DHT22;55682;51.114;5.882;2023-12-14T08:49:10;8.70;79.14
68701;DHT22;55682;51.114;5.882;2023-12-14T08:51:36;8.70;79.08
68701;DHT22;55682;51.114;5.882;2023-12-14T08:54:01;8.71;79.11
68701;DHT22;55682;51.114;5.882;2023-12-14T08:56:27;8.73;79.01
68701;DHT22;55682;51.114;5.882;2023-12-14T08:58:53;8.75;79.19
68701;DHT22;55682;51.114;5.882;2023-12-14T09:01:23;8.81;79.09
68701;DHT22;55682;51.114;5.882;2023-12-14T09:03:49;8.83;78.92
68701;DHT22;55682;51.114;5.882;2023-12-14T09:06:16;8.85;78.75
68701;DHT22;55682;51.114;5.882;2023-12-14T09:08:43;8.85;78.60
68701;DHT22;55682;51.114;5.882;2023-12-14T09:11:09;8.88;78.69
68701;DHT22;55682;51.114;5.882;2023-12-14T09:13:35;8.94;78.56
68701;DHT22;55682;51.114;5.882;2023-12-14T09:16:00;8.95;78.69
68701;DHT22;55682;51.114;5.882;2023-12-14T09:18:26;9.00;78.68
68701;DHT22;55682;51.114;5.882;2023-12-14T09:20:52;9.01;78.63
68701;DHT22;55682;51.114;5.882;2023-12-14T09:23:17;9.04;78.67
68701;DHT22;55682;51.114;5.882;2023-12-14T09:25:45;9.04;78.75
68701;DHT22;55682;51.114;5.882;2023-12-14T09:28:11;9.05;78.60
68701;DHT22;55682;51.114;5.882;2023-12-14T09:30:36;9.06;78.66
68701;DHT22;55682;51.114;5.882;2023-12-14T09:33:02;9.04;78.52
68701;DHT22;55682;51.114;5.882;2023-12-14T09:35:28;9.03;78.69
68701;DHT22;55682;51.114;5.882;2023-12-14T09:37:53;9.05;78.48
68701;DHT22;55682;51.114;5.882;2023-12-14T09:40:19;9.06;78.67
68701;DHT22;55682;51.114;5.882;2023-12-14T09:42:45;9.08;78.65
68701;DHT22;55682;51.114;5.882;2023-12-14T09:45:11;9.09;78.86
68701;DHT22;55682;51.114;5.882;2023-12-14T09:47:38;9.14;78.96
68701;DHT22;55682;51.114;5.882;2023-12-14T09:50:04;9.19;78.95
68701;DHT22;55682;51.114;5.882;2023-12-14T09:52:31;9.25;79.09
68701;DHT22;55682;51.114;5.882;2023-12-14T09:54:56;9.26;79.12
68701;DHT22;55682;51.114;5.882;2023-12-14T09:57:22;9.26;79.22
68701;DHT22;55682;51.114;5.882;2023-12-14T09:59:53;9.26;79.43
68701;DHT22;55682;51.114;5.882;2023-12-14T10:02:19;9.25;79.36
68701;DHT22;55682;51.114;5.882;2023-12-14T10:04:49;9.24;79.27
68701;DHT22;55682;51.114;5.882;2023-12-14T10:07:14;9.18;79.27
68701;DHT22;55682;51.114;5.882;2023-12-14T10:09:40;9.07;79.45
68701;DHT22;55682;51.114;5.882;2023-12-14T10:12:08;8.98;79.10
68701;DHT22;55682;51.114;5.882;2023-12-14T10:14:35;8.88;79.18
68701;DHT22;55682;51.114;5.882;2023-12-14T10:17:31;8.82;79.47
68701;DHT22;55682;51.114;5.882;2023-12-14T10:19:57;8.82;79.56
68701;DHT22;55682;51.114;5.882;2023-12-14T10:22:26;8.82;79.79
68701;DHT22;55682;51.114;5.882;2023-12-14T10:24:53;8.87;79.89
68701;DHT22;55682;51.114;5.882;2023-12-14T10:27:19;8.87;79.92
68701;DHT22;55682;51.114;5.882;2023-12-14T10:29:45;8.88;80.16
68701;DHT22;55682;51.114;5.882;2023-12-14T10:32:12;8.93;80.20
68701;DHT22;55682;51.114;5.882;2023-12-14T10:34:38;8.97;80.11
68701;DHT22;55682;51.114;5.882;2023-12-14T10:37:06;9.00;80.07
68701;DHT22;55682;51.114;5.882;2023-12-14T10:39:35;9.00;79.98
68701;DHT22;55682;51.114;5.882;2023-12-14T10:42:08;9.00;79.98
68701;DHT22;55682;51.114;5.882;2023-12-14T10:44:36;9.01;80.03
68701;DHT22;55682;51.114;5.882;2023-12-14T10:47:03;9.02;79.95
68701;DHT22;55682;51.114;5.882;2023-12-14T10:49:30;9.01;79.97
68701;DHT22;55682;51.114;5.882;2023-12-14T10:51:58;8.98;79.85
68701;DHT22;55682;51.114;5.882;2023-12-14T10:54:25;8.95;79.77
68701;DHT22;55682;51.114;5.882;2023-12-14T10:56:55;8.97;79.72
68701;DHT22;55682;51.114;5.882;2023-12-14T10:59:21;9.04;79.62
68701;DHT22;55682;51.114;5.882;2023-12-14T11:01:55;9.09;79.56
68701;DHT22;55682;51.114;5.882;2023-12-14T11:04:23;9.08;79.52
68701;DHT22;55682;51.114;5.882;2023-12-14T11:06:48;9.10;79.56
68701;DHT22;55682;51.114;5.882;2023-12-14T11:09:17;9.11;78.90
68701;DHT22;55682;51.114;5.882;2023-12-14T11:14:20;9.08;78.54
68701;DHT22;55682;51.114;5.882;2023-12-14T11:16:50;9.06;78.31
68701;DHT22;55682;51.114;5.882;2023-12-14T11:24:23;9.12;78.45
68701;DHT22;55682;51.114;5.882;2023-12-14T11:26:50;9.14;78.44
68701;DHT22;55682;51.114;5.882;2023-12-14T11:29:17;9.17;78.37
68701;DHT22;55682;51.114;5.882;2023-12-14T11:31:43;9.21;78.30
68701;DHT22;55682;51.114;5.882;2023-12-14T11:34:08;9.24;78.17
68701;DHT22;55682;51.114;5.882;2023-12-14T11:36:34;9.34;77.98
68701;DHT22;55682;51.114;5.882;2023-12-14T11:39:00;9.45;78.11
68701;DHT22;55682;51.114;5.882;2023-12-14T11:41:26;9.57;77.89
68701;DHT22;55682;51.114;5.882;2023-12-14T11:43:54;9.71;77.41
68701;DHT22;55682;51.114;5.882;2023-12-14T11:46:21;9.86;76.94
68701;DHT22;55682;51.114;5.882;2023-12-14T11:48:47;9.90;76.69
68701;DHT22;55682;51.114;5.882;2023-12-14T11:51:15;9.94;76.60
68701;DHT22;55682;51.114;5.882;2023-12-14T11:53:46;9.95;76.24
68701;DHT22;55682;51.114;5.882;2023-12-14T11:56:12;9.96;75.94
68701;DHT22;55682;51.114;5.882;2023-12-14T11:58:41;9.97;75.95
68701;DHT22;55682;51.114;5.882;2023-12-14T12:01:20;9.98;75.68
68701;DHT22;55682;51.114;5.882;2023-12-14T12:03:53;9.90;75.31
68701;DHT22;55682;51.114;5.882;2023-12-14T12:06:27;9.85;75.11
68701;DHT22;55682;51.114;5.882;2023-12-14T12:08:53;9.80;75.12
68701;DHT22;55682;51.114;5.882;2023-12-14T12:11:24;9.76;75.00
68701;DHT22;55682;51.114;5.882;2023-12-14T12:13:53;9.74;74.97
68701;DHT22;55682;51.114;5.882;2023-12-14T12:16:19;9.70;74.78
68701;DHT22;55682;51.114;5.882;2023-12-14T12:18:44;9.70;74.42
68701;DHT22;55682;51.114;5.882;2023-12-14T12:21:11;9.70;74.09
68701;DHT22;55682;51.114;5.882;2023-12-14T12:23:37;9.67;73.95
68701;DHT22;55682;51.114;5.882;2023-12-14T12:26:03;9.68;74.06
68701;DHT22;55682;51.114;5.882;2023-12-14T12:28:30;9.68;73.98
68701;DHT22;55682;51.114;5.882;2023-12-14T12:30:56;9.70;73.57
68701;DHT22;55682;51.114;5.882;2023-12-14T12:33:22;9.74;73.61
68701;DHT22;55682;51.114;5.882;2023-12-14T12:35:47;9.81;73.45
68701;DHT22;55682;51.114;5.882;2023-12-14T12:38:13;9.85;73.13
68701;DHT22;55682;51.114;5.882;2023-12-14T12:40:39;9.93;72.93
68701;DHT22;55682;51.114;5.882;2023-12-14T12:43:05;10.07;72.62
68701;DHT22;55682;51.114;5.882;2023-12-14T12:45:31;10.19;72.43
68701;DHT22;55682;51.114;5.882;2023-12-14T12:47:57;10.48;72.93
68701;DHT22;55682;51.114;5.882;2023-12-14T12:50:24;10.89;72.60
68701;DHT22;55682;51.114;5.882;2023-12-14T12:52:50;11.23;71.43
68701;DHT22;55682;51.114;5.882;2023-12-14T12:55:16;11.40;69.69
68701;DHT22;55682;51.114;5.882;2023-12-14T12:57:42;11.45;68.16
68701;DHT22;55682;51.114;5.882;2023-12-14T13:00:09;11.39;67.47
68701;DHT22;55682;51.114;5.882;2023-12-14T13:02:38;11.34;67.45
68701;DHT22;55682;51.114;5.882;2023-12-14T13:05:06;11.33;67.51
68701;DHT22;55682;51.114;5.882;2023-12-14T13:07:34;11.25;67.25
68701;DHT22;55682;51.114;5.882;2023-12-14T13:09:59;11.13;67.46
68701;DHT22;55682;51.114;5.882;2023-12-14T13:12:25;11.02;67.87
68701;DHT22;55682;51.114;5.882;2023-12-14T13:14:51;10.86;68.32
68701;DHT22;55682;51.114;5.882;2023-12-14T13:17:17;10.80;68.49
68701;DHT22;55682;51.114;5.882;2023-12-14T13:19:44;10.70;68.75
68701;DHT22;55682;51.114;5.882;2023-12-14T13:22:10;10.57;68.56
68701;DHT22;55682;51.114;5.882;2023-12-14T13:24:37;10.48;69.23
68701;DHT22;55682;51.114;5.882;2023-12-14T13:27:03;10.46;68.97
68701;DHT22;55682;51.114;5.882;2023-12-14T13:29:30;10.41;69.00
68701;DHT22;55682;51.114;5.882;2023-12-14T13:31:57;10.33;68.99
68701;DHT22;55682;51.114;5.882;2023-12-14T13:34:25;10.24;69.23
68701;DHT22;55682;51.114;5.882;2023-12-14T13:36:50;10.09;69.08
68701;DHT22;55682;51.114;5.882;2023-12-14T13:39:16;9.92;69.59
68701;DHT22;55682;51.114;5.882;2023-12-14T13:41:41;9.88;70.31
68701;DHT22;55682;51.114;5.882;2023-12-14T13:44:08;9.82;70.50
68701;DHT22;55682;51.114;5.882;2023-12-14T13:46:33;9.78;70.48
68701;DHT22;55682;51.114;5.882;2023-12-14T13:48:59;9.68;70.25
68701;DHT22;55682;51.114;5.882;2023-12-14T13:51:25;9.67;70.25
68701;DHT22;55682;51.114;5.882;2023-12-14T13:53:52;9.65;70.10
68701;DHT22;55682;51.114;5.882;2023-12-14T13:56:17;9.64;70.35
68701;DHT22;55682;51.114;5.882;2023-12-14T13:58:43;9.61;69.97
68701;DHT22;55682;51.114;5.882;2023-12-14T14:01:09;9.52;69.92
68701;DHT22;55682;51.114;5.882;2023-12-14T14:03:35;9.41;69.95
68701;DHT22;55682;51.114;5.882;2023-12-14T14:06:03;9.33;70.16
68701;DHT22;55682;51.114;5.882;2023-12-14T14:08:29;9.30;70.51
68701;DHT22;55682;51.114;5.882;2023-12-14T14:10:57;9.25;70.62
68701;DHT22;55682;51.114;5.882;2023-12-14T14:13:23;9.23;70.59
68701;DHT22;55682;51.114;5.882;2023-12-14T14:15:49;9.23;70.40
68701;DHT22;55682;51.114;5.882;2023-12-14T14:18:15;9.17;70.32
68701;DHT22;55682;51.114;5.882;2023-12-14T14:20:40;9.08;70.48
68701;DHT22;55682;51.114;5.882;2023-12-14T14:23:06;9.09;70.78
68701;DHT22;55682;51.114;5.882;2023-12-14T14:25:32;9.14;71.04
68701;DHT22;55682;51.114;5.882;2023-12-14T14:27:58;9.19;71.12
68701;DHT22;55682;51.114;5.882;2023-12-14T14:30:24;9.26;70.81
68701;DHT22;55682;51.114;5.882;2023-12-14T14:32:50;9.27;70.45
68701;DHT22;55682;51.114;5.882;2023-12-14T14:35:16;9.27;70.10
68701;DHT22;55682;51.114;5.882;2023-12-14T14:37:42;9.21;70.30
68701;DHT22;55682;51.114;5.882;2023-12-14T14:40:14;9.21;70.55
68701;DHT22;55682;51.114;5.882;2023-12-14T14:42:40;9.22;70.75
68701;DHT22;55682;51.114;5.882;2023-12-14T14:45:10;9.19;70.97
68701;DHT22;55682;51.114;5.882;2023-12-14T14:47:36;9.12;70.86
68701;DHT22;55682;51.114;5.882;2023-12-14T14:50:03;9.04;70.92
68701;DHT22;55682;51.114;5.882;2023-12-14T14:52:30;8.95;71.19
68701;DHT22;55682;51.114;5.882;2023-12-14T14:54:56;8.90;71.42
68701;DHT22;55682;51.114;5.882;2023-12-14T14:57:22;8.91;71.67
68701;DHT22;55682;51.114;5.882;2023-12-14T14:59:47;8.91;71.80
68701;DHT22;55682;51.114;5.882;2023-12-14T15:02:13;8.93;71.72
68701;DHT22;55682;51.114;5.882;2023-12-14T15:04:38;8.94;71.92
68701;DHT22;55682;51.114;5.882;2023-12-14T15:07:04;8.98;71.90
68701;DHT22;55682;51.114;5.882;2023-12-14T15:09:30;9.03;71.83
68701;DHT22;55682;51.114;5.882;2023-12-14T15:11:55;9.09;71.45
68701;DHT22;55682;51.114;5.882;2023-12-14T15:14:22;9.08;71.76
68701;DHT22;55682;51.114;5.882;2023-12-14T15:16:48;9.09;71.69
68701;DHT22;55682;51.114;5.882;2023-12-14T15:19:13;9.05;71.96
68701;DHT22;55682;51.114;5.882;2023-12-14T15:21:39;9.02;71.94
68701;DHT22;55682;51.114;5.882;2023-12-14T15:24:05;8.96;72.25
68701;DHT22;55682;51.114;5.882;2023-12-14T15:26:31;8.92;72.42
68701;DHT22;55682;51.114;5.882;2023-12-14T15:28:59;8.90;72.51
68701;DHT22;55682;51.114;5.882;2023-12-14T15:31:25;8.90;72.58
68701;DHT22;55682;51.114;5.882;2023-12-14T15:33:51;8.88;72.59
68701;DHT22;55682;51.114;5.882;2023-12-14T15:36:17;8.88;72.70
68701;DHT22;55682;51.114;5.882;2023-12-14T15:38:42;8.88;72.86
68701;DHT22;55682;51.114;5.882;2023-12-14T15:41:12;8.90;72.81
68701;DHT22;55682;51.114;5.882;2023-12-14T15:43:38;8.92;72.91
68701;DHT22;55682;51.114;5.882;2023-12-14T15:46:04;8.88;72.80